createdAt,value
2022-10-02T00:00:29.000Z,1.8
2022-10-02T00:01:46.000Z,1.5
2022-10-02T00:03:01.000Z,1.8
2022-10-02T00:04:17.000Z,1.5
2022-10-02T00:05:33.000Z,1.5
2022-10-02T00:06:49.000Z,1.4
2022-10-02T00:08:06.000Z,1.7
2022-10-02T00:09:22.000Z,1.9
2022-10-02T00:10:38.000Z,2.2
2022-10-02T00:11:54.000Z,2.2
2022-10-02T00:13:10.000Z,2.5
2022-10-02T00:14:27.000Z,2.7
2022-10-02T00:16:02.542Z,2.2
2022-10-02T00:16:59.000Z,1.8
2022-10-02T00:18:15.000Z,1.8
2022-10-02T00:19:30.000Z,3.6
2022-10-02T00:20:47.000Z,2.5
2022-10-02T00:22:03.000Z,1.9
2022-10-02T00:23:19.000Z,1.7
2022-10-02T00:24:35.000Z,2
2022-10-02T00:25:51.000Z,1.9
2022-10-02T00:27:08.000Z,1.2
2022-10-02T00:28:24.000Z,1.5
2022-10-02T00:29:40.000Z,2.2
2022-10-02T00:30:56.000Z,1.7
2022-10-02T00:32:12.000Z,1.6
2022-10-02T00:33:29.000Z,1.6
2022-10-02T00:34:45.000Z,1.9
2022-10-02T00:36:00.000Z,2.4
2022-10-02T00:37:16.000Z,1.9
2022-10-02T00:38:32.000Z,1.9
2022-10-02T00:39:49.000Z,1.7
2022-10-02T00:41:05.000Z,2.1
2022-10-02T00:42:21.000Z,2.4
2022-10-02T00:43:37.000Z,1.6
2022-10-02T00:44:53.000Z,1.5
2022-10-02T00:46:10.000Z,1.9
2022-10-02T00:47:26.000Z,2.1
2022-10-02T00:48:42.000Z,1.8
2022-10-02T00:49:58.000Z,2
2022-10-02T00:51:14.000Z,1.8
2022-10-02T00:52:30.000Z,2.3
2022-10-02T00:54:08.440Z,1.6
2022-10-02T00:55:02.000Z,2.2
2022-10-02T00:56:18.000Z,1.9
2022-10-02T00:57:34.000Z,2.2
2022-10-02T00:58:50.000Z,1.6
2022-10-02T01:00:07.000Z,1.7
2022-10-02T01:01:23.000Z,1.9
2022-10-02T01:02:39.000Z,1.9
2022-10-02T01:03:55.000Z,2
2022-10-02T01:05:11.000Z,1.8
2022-10-02T01:06:28.000Z,2.2
2022-10-02T01:07:44.000Z,1.8
2022-10-02T01:08:59.000Z,1.9
2022-10-02T01:10:15.000Z,2.1
2022-10-02T01:11:31.000Z,1.6
2022-10-02T01:12:48.000Z,2.1
2022-10-02T01:14:04.000Z,1.8
2022-10-02T01:15:20.000Z,1.9
2022-10-02T01:16:36.000Z,1.9
2022-10-02T01:17:52.000Z,1.7
2022-10-02T01:19:09.000Z,1.8
2022-10-02T01:20:25.000Z,1.5
2022-10-02T01:21:41.000Z,1.9
2022-10-02T01:22:57.000Z,2
2022-10-02T01:24:13.000Z,1.8
2022-10-02T01:25:29.000Z,2
2022-10-02T01:26:45.000Z,2.3
2022-10-02T01:28:01.000Z,1.7
2022-10-02T01:29:17.000Z,1.8
2022-10-02T01:30:33.000Z,2.2
2022-10-02T01:31:50.000Z,2
2022-10-02T01:33:05.000Z,1.7
2022-10-02T01:34:21.000Z,2.2
2022-10-02T01:35:37.000Z,1.7
2022-10-02T01:36:53.000Z,2.2
2022-10-02T01:38:10.000Z,2.1
2022-10-02T01:39:26.000Z,1.9
2022-10-02T01:40:42.000Z,1.9
2022-10-02T01:41:58.000Z,2
2022-10-02T01:43:14.000Z,1.8
2022-10-02T01:44:31.000Z,2
2022-10-02T01:45:47.000Z,2.1
2022-10-02T01:47:03.000Z,1.8
2022-10-02T01:48:19.000Z,2.1
2022-10-02T01:49:34.000Z,2.3
2022-10-02T01:50:51.000Z,1.8
2022-10-02T01:52:07.000Z,2.2
2022-10-02T01:53:23.000Z,1.9
2022-10-02T01:54:39.000Z,2.1
2022-10-02T01:55:55.000Z,2.1
2022-10-02T01:57:12.000Z,2
2022-10-02T01:58:28.000Z,2
2022-10-02T01:59:44.000Z,2.4
2022-10-02T02:01:00.000Z,2.5
2022-10-02T02:02:16.000Z,1.8
2022-10-02T02:03:33.000Z,2
2022-10-02T02:04:49.000Z,2.1
2022-10-02T02:06:04.000Z,2
2022-10-02T02:07:20.000Z,1.9
2022-10-02T02:08:36.000Z,1.5
2022-10-02T02:10:21.229Z,1.9
2022-10-02T02:11:09.000Z,2.1
2022-10-02T02:12:25.000Z,1.7
2022-10-02T02:13:41.000Z,2.3
2022-10-02T02:14:57.000Z,2
2022-10-02T02:16:13.000Z,2.2
2022-10-02T02:17:30.000Z,2.2
2022-10-02T02:18:46.000Z,2.6
2022-10-02T02:20:02.000Z,2.9
2022-10-02T02:21:18.000Z,2.7
2022-10-02T02:22:33.000Z,1.8
2022-10-02T02:23:50.000Z,1.8
2022-10-02T02:25:06.000Z,2.1
2022-10-02T02:26:22.000Z,2.2
2022-10-02T02:27:38.000Z,2.3
2022-10-02T02:28:54.000Z,2.3
2022-10-02T02:30:11.000Z,2.7
2022-10-02T02:31:27.000Z,2.3
2022-10-02T02:32:43.000Z,1.9
2022-10-02T02:33:59.000Z,2.2
2022-10-02T02:35:15.000Z,3.1
2022-10-02T02:36:32.000Z,2.1
2022-10-02T02:37:48.000Z,2.1
2022-10-02T02:39:03.000Z,2.1
2022-10-02T02:40:19.000Z,2.3
2022-10-02T02:41:35.000Z,1.8
2022-10-02T02:42:52.000Z,2.5
2022-10-02T02:44:08.000Z,2.5
2022-10-02T02:45:24.000Z,2.5
2022-10-02T02:46:40.000Z,2.2
2022-10-02T02:47:56.000Z,2.3
2022-10-02T02:49:13.000Z,2.7
2022-10-02T02:50:29.000Z,2.6
2022-10-02T02:51:45.000Z,2.1
2022-10-02T02:53:01.000Z,2.1
2022-10-02T02:54:17.000Z,2.2
2022-10-02T02:55:33.000Z,2.1
2022-10-02T02:56:49.000Z,2.8
2022-10-02T02:58:05.000Z,2.2
2022-10-02T02:59:21.000Z,2.1
2022-10-02T03:00:37.000Z,2.5
2022-10-02T03:01:54.000Z,2.1
2022-10-02T03:03:10.000Z,2.1
2022-10-02T03:04:26.000Z,2.1
2022-10-02T03:05:42.000Z,2.3
2022-10-02T03:06:58.000Z,2
2022-10-02T03:08:15.000Z,2.3
2022-10-02T03:09:31.000Z,2.2
2022-10-02T03:10:47.000Z,2.4
2022-10-02T03:12:02.000Z,1.8
2022-10-02T03:14:14.038Z,2.6
2022-10-02T03:14:35.000Z,2.2
2022-10-02T03:15:51.000Z,2.3
2022-10-02T03:17:07.000Z,2.4
2022-10-02T03:18:23.000Z,2.2
2022-10-02T03:19:39.000Z,2.1
2022-10-02T03:20:56.000Z,2
2022-10-02T03:22:12.000Z,2.1
2022-10-02T03:23:28.000Z,2.2
2022-10-02T03:24:44.000Z,2.3
2022-10-02T03:26:00.000Z,2.2
2022-10-02T03:27:16.000Z,2.1
2022-10-02T03:28:32.000Z,1.6
2022-10-02T03:29:48.000Z,1.6
2022-10-02T03:31:04.000Z,2.3
2022-10-02T03:32:20.000Z,2.1
2022-10-02T03:33:36.000Z,2.7
2022-10-02T03:34:53.000Z,2.1
2022-10-02T03:36:09.000Z,2.3
2022-10-02T03:37:25.000Z,2.3
2022-10-02T03:38:41.000Z,4.9
2022-10-02T03:39:57.000Z,5.8
2022-10-02T03:41:14.000Z,7.6
2022-10-02T03:42:30.000Z,7.3
2022-10-02T03:43:46.000Z,7.9
2022-10-02T03:45:01.000Z,7
2022-10-02T03:46:17.000Z,6.7
2022-10-02T03:47:34.000Z,6.7
2022-10-02T03:48:50.000Z,7.6
2022-10-02T03:50:06.000Z,6.7
2022-10-02T03:52:20.924Z,6.4
2022-10-02T03:52:38.000Z,6.6
2022-10-02T03:53:55.000Z,6.1
2022-10-02T03:55:11.000Z,6.2
2022-10-02T03:56:27.000Z,4.7
2022-10-02T03:57:43.000Z,4.6
2022-10-02T03:58:59.000Z,4.4
2022-10-02T04:00:16.000Z,4.3
2022-10-02T04:01:31.000Z,3.7
2022-10-02T04:02:47.000Z,4
2022-10-02T04:04:42.890Z,3.6
2022-10-02T04:05:19.000Z,3.7
2022-10-02T04:06:36.000Z,3.4
2022-10-02T04:07:52.000Z,3.7
2022-10-02T04:09:08.000Z,3.8
2022-10-02T04:10:24.000Z,2.8
2022-10-02T04:11:40.000Z,3.6
2022-10-02T04:12:57.000Z,3.6
2022-10-02T04:14:13.000Z,3.4
2022-10-02T04:15:29.000Z,3.4
2022-10-02T04:16:45.000Z,3.1
2022-10-02T04:18:00.000Z,3.4
2022-10-02T04:19:17.000Z,3.5
2022-10-02T04:20:33.000Z,2.2
2022-10-02T04:21:49.000Z,4
2022-10-02T04:23:05.000Z,3.5
2022-10-02T04:24:21.000Z,3.2
2022-10-02T04:25:38.000Z,3.4
2022-10-02T04:26:54.000Z,3
2022-10-02T04:28:10.000Z,3.2
2022-10-02T04:29:26.000Z,3.4
2022-10-02T04:30:42.000Z,3
2022-10-02T04:31:59.000Z,3.2
2022-10-02T04:33:15.000Z,2.6
2022-10-02T04:34:30.000Z,3.5
2022-10-02T04:35:46.000Z,3.3
2022-10-02T04:37:02.000Z,3
2022-10-02T04:38:19.000Z,3.5
2022-10-02T04:39:35.000Z,3
2022-10-02T04:40:51.000Z,3.4
2022-10-02T04:42:07.000Z,3.2
2022-10-02T04:43:23.000Z,3.4
2022-10-02T04:44:40.000Z,3.4
2022-10-02T04:45:56.000Z,3.3
2022-10-02T04:47:12.000Z,3.1
2022-10-02T04:48:28.000Z,3.4
2022-10-02T04:49:44.000Z,3.2
2022-10-02T04:51:00.000Z,3.6
2022-10-02T04:52:16.000Z,3.8
2022-10-02T04:53:32.000Z,3.5
2022-10-02T04:54:48.000Z,3.4
2022-10-02T04:56:04.000Z,4
2022-10-02T04:57:20.000Z,3.7
2022-10-02T04:58:37.000Z,3.6
2022-10-02T04:59:53.000Z,3.4
2022-10-02T05:01:09.000Z,3.9
2022-10-02T05:02:25.000Z,4
2022-10-02T05:03:41.000Z,3.4
2022-10-02T05:04:58.000Z,3.4
2022-10-02T05:06:14.000Z,3.5
2022-10-02T05:07:34.711Z,3.5
2022-10-02T05:08:45.000Z,3.8
2022-10-02T05:10:01.000Z,4
2022-10-02T05:11:18.000Z,4
2022-10-02T05:12:34.000Z,3.7
2022-10-02T05:13:50.000Z,3.8
2022-10-02T05:15:06.000Z,3.5
2022-10-02T05:16:22.000Z,3.9
2022-10-02T05:17:39.000Z,4.4
2022-10-02T05:18:55.000Z,3.8
2022-10-02T05:20:58.660Z,3.9
2022-10-02T05:21:27.000Z,3.7
2022-10-02T05:22:43.000Z,4.3
2022-10-02T05:23:59.000Z,3.9
2022-10-02T05:25:15.000Z,4
2022-10-02T05:26:31.000Z,3.5
2022-10-02T05:27:47.000Z,3.6
2022-10-02T05:29:03.000Z,4.3
2022-10-02T05:30:20.000Z,3.8
2022-10-02T05:31:36.000Z,3.7
2022-10-02T05:32:52.000Z,4
2022-10-02T05:34:08.000Z,3.9
2022-10-02T05:35:24.000Z,4.1
2022-10-02T05:36:41.000Z,3.8
2022-10-02T05:37:57.000Z,3.6
2022-10-02T05:39:13.000Z,3.5
2022-10-02T05:40:28.000Z,3.8
2022-10-02T05:41:44.000Z,4
2022-10-02T05:43:01.000Z,4.1
2022-10-02T05:44:17.000Z,4.1
2022-10-02T05:45:33.000Z,3.9
2022-10-02T05:46:49.000Z,3.8
2022-10-02T05:48:04.000Z,4
2022-10-02T05:49:21.000Z,3.5
2022-10-02T05:50:37.000Z,3.2
2022-10-02T05:51:53.000Z,2.9
2022-10-02T05:53:09.000Z,3.5
2022-10-02T05:54:25.000Z,3.9
2022-10-02T05:55:42.000Z,3.6
2022-10-02T05:56:58.000Z,4.3
2022-10-02T05:59:04.563Z,3.8
2022-10-02T05:59:30.000Z,4.2
2022-10-02T06:00:46.000Z,4.2
2022-10-02T06:02:03.000Z,3.6
2022-10-02T06:03:19.000Z,3.9
2022-10-02T06:04:34.000Z,3.6
2022-10-02T06:05:50.000Z,3.7
2022-10-02T06:07:06.000Z,3.4
2022-10-02T06:08:23.000Z,3.6
2022-10-02T06:09:54.334Z,3.4
2022-10-02T06:11:26.529Z,3.8
2022-10-02T06:12:11.000Z,4.1
2022-10-02T06:13:27.000Z,4.3
2022-10-02T06:14:44.000Z,3.8
2022-10-02T06:16:00.000Z,3.1
2022-10-02T06:17:16.000Z,3.8
2022-10-02T06:18:32.000Z,4.3
2022-10-02T06:19:48.000Z,3.9
2022-10-02T06:21:04.000Z,3.9
2022-10-02T06:22:20.000Z,4.3
2022-10-02T06:23:48.493Z,3.9
2022-10-02T06:24:52.000Z,3.7
2022-10-02T06:26:08.000Z,4.4
2022-10-02T06:27:24.000Z,4.2
2022-10-02T06:28:41.000Z,4.1
2022-10-02T06:29:57.000Z,3.6
2022-10-02T06:31:13.000Z,4.8
2022-10-02T06:32:34.857Z,4.2
2022-10-02T06:33:45.000Z,3.7
2022-10-02T06:35:02.000Z,3.3
2022-10-02T06:36:18.000Z,4.1
2022-10-02T06:37:33.000Z,3.1
2022-10-02T06:38:49.000Z,4.2
2022-10-02T06:40:05.000Z,3.6
2022-10-02T06:41:22.000Z,3.7
2022-10-02T06:42:38.000Z,4.2
2022-10-02T06:43:54.000Z,4.4
2022-10-02T06:45:10.000Z,4.2
2022-10-02T06:46:26.000Z,3.4
2022-10-02T06:47:43.000Z,4.6
2022-10-02T06:48:59.000Z,4.3
2022-10-02T06:50:15.000Z,4.4
2022-10-02T06:51:31.000Z,3.6
2022-10-02T06:52:47.000Z,4.1
2022-10-02T06:54:03.000Z,3.5
2022-10-02T06:55:19.000Z,4.3
2022-10-02T06:56:35.000Z,4.6
2022-10-02T06:57:51.000Z,3.4
2022-10-02T06:59:07.000Z,4.1
2022-10-02T07:00:24.000Z,4
2022-10-02T07:01:56.377Z,3.6
2022-10-02T07:02:56.000Z,3.2
2022-10-02T07:04:12.000Z,4
2022-10-02T07:05:28.000Z,3.6
2022-10-02T07:06:45.000Z,4.2
2022-10-02T07:08:01.000Z,3.6
2022-10-02T07:09:17.000Z,3.2
2022-10-02T07:10:32.000Z,3.4
2022-10-02T07:11:48.000Z,3.7
2022-10-02T07:13:05.000Z,3.6
2022-10-02T07:15:18.333Z,3.2
2022-10-02T07:15:37.000Z,3.6
2022-10-02T07:16:53.000Z,3.7
2022-10-02T07:18:09.000Z,3.3
2022-10-02T07:19:26.000Z,3
2022-10-02T07:20:42.000Z,3.7
2022-10-02T07:21:58.000Z,3.2
2022-10-02T07:23:14.000Z,3.2
2022-10-02T07:24:30.000Z,2.7
2022-10-02T07:25:47.000Z,3.5
2022-10-02T07:27:02.000Z,3.1
2022-10-02T07:29:12.474Z,3.2
2022-10-02T07:29:34.000Z,3.8
2022-10-02T07:30:50.000Z,3.2
2022-10-02T07:32:06.000Z,4.1
2022-10-02T07:33:23.000Z,3.3
2022-10-02T07:34:39.000Z,3.1
2022-10-02T07:35:55.000Z,3.5
2022-10-02T07:37:11.000Z,3.1
2022-10-02T07:38:27.000Z,3.3
2022-10-02T07:40:04.212Z,3.3
2022-10-02T07:41:00.000Z,3.3
2022-10-02T07:42:16.000Z,3.4
2022-10-02T07:43:31.000Z,2.9
2022-10-02T07:44:47.000Z,3.3
2022-10-02T07:46:04.000Z,3.2
2022-10-02T07:47:20.000Z,3.5
2022-10-02T07:48:36.000Z,2.9
2022-10-02T07:49:52.000Z,3
2022-10-02T07:51:08.000Z,3.1
2022-10-02T07:52:25.000Z,2.9
2022-10-02T07:53:41.000Z,2.7
2022-10-02T07:54:57.000Z,2.9
2022-10-02T07:56:13.000Z,2.9
2022-10-02T07:57:29.000Z,2.9
2022-10-02T07:58:46.000Z,2.7
2022-10-02T08:00:01.000Z,2.8
2022-10-02T08:01:17.000Z,2.5
2022-10-02T08:02:33.000Z,2.4
2022-10-02T08:03:49.000Z,3
2022-10-02T08:05:06.000Z,2.9
2022-10-02T08:06:22.000Z,2.9
2022-10-02T08:07:38.000Z,2.9
2022-10-02T08:08:54.000Z,3.1
2022-10-02T08:10:10.000Z,2.7
2022-10-02T08:11:27.000Z,2.7
2022-10-02T08:12:43.000Z,2.7
2022-10-02T08:13:59.000Z,2.5
2022-10-02T08:15:15.000Z,2.9
2022-10-02T08:16:30.000Z,2.6
2022-10-02T08:18:09.050Z,2.2
2022-10-02T08:19:03.000Z,4.1
2022-10-02T08:20:19.000Z,3.6
2022-10-02T08:21:35.000Z,3.2
2022-10-02T08:22:51.000Z,3.4
2022-10-02T08:24:07.000Z,2.9
2022-10-02T08:25:24.000Z,2.4
2022-10-02T08:26:40.000Z,2.6
2022-10-02T08:27:56.000Z,2.4
2022-10-02T08:29:12.000Z,2.5
2022-10-02T08:30:28.000Z,2.3
2022-10-02T08:31:45.000Z,2.5
2022-10-02T08:33:00.000Z,2.6
2022-10-02T08:34:16.000Z,2.2
2022-10-02T08:35:32.000Z,2.1
2022-10-02T08:36:48.000Z,2.8
2022-10-02T08:38:05.000Z,2.3
2022-10-02T08:39:21.000Z,2.6
2022-10-02T08:40:37.000Z,2.8
2022-10-02T08:41:53.000Z,2.4
2022-10-02T08:43:09.000Z,3.8
2022-10-02T08:44:26.000Z,2.5
2022-10-02T08:45:42.000Z,2.4
2022-10-02T08:46:58.000Z,1.8
2022-10-02T08:48:14.000Z,2
2022-10-02T08:49:29.000Z,2.2
2022-10-02T08:50:46.000Z,2.1
2022-10-02T08:52:02.000Z,2.4
2022-10-02T08:53:18.000Z,2.7
2022-10-02T08:54:34.000Z,2.4
2022-10-02T08:55:50.000Z,2.4
2022-10-02T08:57:07.000Z,2.3
2022-10-02T08:58:23.000Z,2.1
2022-10-02T08:59:39.000Z,2.5
2022-10-02T09:00:55.000Z,2.2
2022-10-02T09:02:11.000Z,2.3
2022-10-02T09:03:27.000Z,2.2
2022-10-02T09:04:44.000Z,1.9
2022-10-02T09:05:59.000Z,1.8
2022-10-02T09:07:15.000Z,2.2
2022-10-02T09:08:31.000Z,2.2
2022-10-02T09:09:47.000Z,2.3
2022-10-02T09:11:04.000Z,1.9
2022-10-02T09:12:20.000Z,2
2022-10-02T09:13:36.000Z,2.3
2022-10-02T09:14:52.000Z,2.2
2022-10-02T09:16:08.000Z,2.2
2022-10-02T09:17:25.000Z,1.8
2022-10-02T09:18:41.000Z,1.8
2022-10-02T09:19:57.000Z,1.9
2022-10-02T09:21:13.000Z,1.6
2022-10-02T09:22:28.000Z,1.4
2022-10-02T09:23:45.000Z,2.1
2022-10-02T09:25:01.000Z,1.8
2022-10-02T09:26:17.000Z,1.6
2022-10-02T09:27:33.000Z,1.9
2022-10-02T09:28:49.000Z,1.6
2022-10-02T09:30:06.000Z,1.4
2022-10-02T09:31:22.000Z,1.4
2022-10-02T09:32:38.000Z,1.5
2022-10-02T09:33:54.000Z,1.5
2022-10-02T09:35:10.000Z,2
2022-10-02T09:36:27.000Z,2.2
2022-10-02T09:37:43.000Z,1.8
2022-10-02T09:38:58.000Z,2.1
2022-10-02T09:40:14.000Z,1.4
2022-10-02T09:41:30.000Z,1.6
2022-10-02T09:42:47.000Z,1.8
2022-10-02T09:44:03.000Z,1.6
2022-10-02T09:45:19.000Z,1.7
2022-10-02T09:46:35.000Z,1.4
2022-10-02T09:47:51.000Z,1.7
2022-10-02T09:49:08.000Z,1.2
2022-10-02T09:50:24.000Z,1.6
2022-10-02T09:51:40.000Z,1.5
2022-10-02T09:52:56.000Z,1.2
2022-10-02T09:54:12.000Z,1.5
2022-10-02T09:55:27.000Z,1.8
2022-10-02T09:56:44.000Z,1.2
2022-10-02T09:58:00.000Z,1.5
2022-10-02T09:59:16.000Z,1
2022-10-02T10:00:32.000Z,1.4
2022-10-02T10:01:48.000Z,1.4
2022-10-02T10:03:04.000Z,1.5
2022-10-02T10:04:20.000Z,1.4
2022-10-02T10:05:36.000Z,1.5
2022-10-02T10:06:52.000Z,1.3
2022-10-02T10:08:08.000Z,1.2
2022-10-02T10:09:25.000Z,1.1
2022-10-02T10:10:41.000Z,1.4
2022-10-02T10:11:57.000Z,1.4
2022-10-02T10:13:13.000Z,1.3
2022-10-02T10:14:29.000Z,1.4
2022-10-02T10:15:46.000Z,1.3
2022-10-02T10:17:02.000Z,1.6
2022-10-02T10:18:18.000Z,1.3
2022-10-02T10:19:33.000Z,1.3
2022-10-02T10:20:49.000Z,1.9
2022-10-02T10:22:06.000Z,1.8
2022-10-02T10:23:22.000Z,1.8
2022-10-02T10:24:38.000Z,1.2
2022-10-02T10:25:54.000Z,1.4
2022-10-02T10:27:10.000Z,1.4
2022-10-02T10:28:27.000Z,1.6
2022-10-02T10:29:43.000Z,1.6
2022-10-02T10:30:59.000Z,1.5
2022-10-02T10:32:15.000Z,1.6
2022-10-02T10:33:31.000Z,1.5
2022-10-02T10:34:48.000Z,1.3
2022-10-02T10:36:03.000Z,1.3
2022-10-02T10:38:10.134Z,1.4
2022-10-02T10:38:35.000Z,1
2022-10-02T10:39:51.000Z,1.4
2022-10-02T10:41:08.000Z,1
2022-10-02T10:42:24.000Z,1.5
2022-10-02T10:43:40.000Z,1.5
2022-10-02T10:44:56.000Z,1.3
2022-10-02T10:46:12.000Z,1.3
2022-10-02T10:47:28.000Z,1.2
2022-10-02T10:48:45.000Z,1.6
2022-10-02T10:50:01.000Z,1.1
2022-10-02T10:51:17.000Z,1.2
2022-10-02T10:52:32.000Z,1.3
2022-10-02T10:53:48.000Z,1.6
2022-10-02T10:55:05.000Z,1.3
2022-10-02T10:56:21.000Z,1.3
2022-10-02T10:57:37.000Z,1.3
2022-10-02T10:58:53.000Z,1.2
2022-10-02T11:00:09.000Z,1.3
2022-10-02T11:01:26.000Z,0.9
2022-10-02T11:02:56.010Z,1.1
2022-10-02T11:03:58.000Z,1.1
2022-10-02T11:05:14.000Z,0.9
2022-10-02T11:06:30.000Z,1.2
2022-10-02T11:07:47.000Z,1.3
2022-10-02T11:09:02.000Z,1.1
2022-10-02T11:10:18.000Z,1.4
2022-10-02T11:11:34.000Z,1.3
2022-10-02T11:12:50.000Z,1.5
2022-10-02T11:14:07.000Z,1.3
2022-10-02T11:15:23.000Z,1.1
2022-10-02T11:16:39.000Z,1.2
2022-10-02T11:17:55.000Z,1.5
2022-10-02T11:19:11.000Z,1.2
2022-10-02T11:20:28.000Z,1.3
2022-10-02T11:21:44.000Z,1.1
2022-10-02T11:23:00.000Z,0.9
2022-10-02T11:24:16.000Z,1.1
2022-10-02T11:25:31.000Z,1
2022-10-02T11:26:48.000Z,1.2
2022-10-02T11:28:04.000Z,1.2
2022-10-02T11:29:20.000Z,1.4
2022-10-02T11:30:36.000Z,0.8
2022-10-02T11:31:52.000Z,1.3
2022-10-02T11:33:08.000Z,1.5
2022-10-02T11:34:25.000Z,2.7
2022-10-02T11:35:41.000Z,1.5
2022-10-02T11:36:57.000Z,1.6
2022-10-02T11:38:13.000Z,1.6
2022-10-02T11:39:29.000Z,1
2022-10-02T11:41:03.822Z,1.2
2022-10-02T11:42:01.000Z,1.4
2022-10-02T11:43:17.000Z,1.1
2022-10-02T11:44:33.000Z,1.8
2022-10-02T11:45:49.000Z,0.9
2022-10-02T11:47:06.000Z,1.2
2022-10-02T11:48:22.000Z,1.2
2022-10-02T11:49:38.000Z,1.1
2022-10-02T11:50:54.000Z,1.4
2022-10-02T11:52:10.000Z,0.9
2022-10-02T11:53:27.000Z,1
2022-10-02T11:54:43.000Z,1.1
2022-10-02T11:55:59.000Z,1
2022-10-02T11:57:15.000Z,1
2022-10-02T11:58:30.000Z,1.6
2022-10-02T12:01:03.000Z,1
2022-10-02T12:02:19.000Z,0.7
2022-10-02T12:03:35.000Z,1.5
2022-10-02T12:04:51.000Z,1.1
2022-10-02T12:06:47.711Z,1
2022-10-02T12:07:24.000Z,1.1
2022-10-02T12:08:40.000Z,1
2022-10-02T12:09:56.000Z,1.1
2022-10-02T12:11:12.000Z,1.1
2022-10-02T12:12:29.000Z,1.2
2022-10-02T12:13:45.000Z,1.2
2022-10-02T12:15:00.000Z,1
2022-10-02T12:16:16.000Z,1
2022-10-02T12:17:32.000Z,0.9
2022-10-02T12:18:49.000Z,1.2
2022-10-02T12:20:05.000Z,1.1
2022-10-02T12:21:21.000Z,0.9
2022-10-02T12:22:37.000Z,0.8
2022-10-02T12:23:53.000Z,0.7
2022-10-02T12:25:09.000Z,0.9
2022-10-02T12:26:26.000Z,1.1
2022-10-02T12:27:42.000Z,1
2022-10-02T12:28:58.000Z,0.9
2022-10-02T12:30:14.000Z,0.9
2022-10-02T12:31:29.000Z,1.1
2022-10-02T12:32:46.000Z,0.9
2022-10-02T12:34:02.000Z,1.1
2022-10-02T12:35:18.000Z,1
2022-10-02T12:36:34.000Z,0.7
2022-10-02T12:37:50.000Z,0.9
2022-10-02T12:39:07.000Z,1.2
2022-10-02T12:40:23.000Z,1.2
2022-10-02T12:41:39.000Z,1.3
2022-10-02T12:42:55.000Z,1.4
2022-10-02T12:44:11.000Z,0.9
2022-10-02T12:45:28.000Z,0.9
2022-10-02T12:46:44.000Z,1.2
2022-10-02T12:47:59.000Z,1.2
2022-10-02T12:49:15.000Z,1.2
2022-10-02T12:50:31.000Z,1.1
2022-10-02T12:51:48.000Z,1.1
2022-10-02T12:53:04.000Z,0.9
2022-10-02T12:54:20.000Z,0.9
2022-10-02T12:55:36.000Z,0.9
2022-10-02T12:57:17.474Z,1.1
2022-10-02T12:58:09.000Z,1.7
2022-10-02T12:59:25.000Z,1.1
2022-10-02T13:00:41.000Z,1.5
2022-10-02T13:01:57.000Z,1.4
2022-10-02T13:03:13.000Z,0.9
2022-10-02T13:04:29.000Z,1.1
2022-10-02T13:05:45.000Z,0.9
2022-10-02T13:07:01.000Z,0.9
2022-10-02T13:08:17.000Z,0.9
2022-10-02T13:09:33.000Z,1
2022-10-02T13:10:49.000Z,1.1
2022-10-02T13:12:06.000Z,1.2
2022-10-02T13:13:22.000Z,0.7
2022-10-02T13:14:38.000Z,1.1
2022-10-02T13:15:54.000Z,0.9
2022-10-02T13:17:10.000Z,0.8
2022-10-02T13:18:27.000Z,2
2022-10-02T13:19:43.000Z,1
2022-10-02T13:20:58.000Z,1
2022-10-02T13:22:14.000Z,1
2022-10-02T13:23:30.000Z,0.9
2022-10-02T13:24:47.000Z,0.9
2022-10-02T13:26:03.000Z,1.1
2022-10-02T13:27:19.000Z,0.7
2022-10-02T13:28:35.000Z,1.1
2022-10-02T13:29:51.000Z,0.8
2022-10-02T13:31:08.000Z,0.9
2022-10-02T13:32:24.000Z,0.9
2022-10-02T13:33:40.000Z,0.9
2022-10-02T13:34:56.000Z,1.1
2022-10-02T13:36:12.000Z,0.8
2022-10-02T13:37:28.000Z,0.8
2022-10-02T13:38:44.000Z,1
2022-10-02T13:40:00.000Z,1
2022-10-02T13:41:16.000Z,1
2022-10-02T13:42:32.000Z,0.8
2022-10-02T13:43:49.000Z,1.2
2022-10-02T13:45:05.000Z,1.1
2022-10-02T13:46:21.000Z,0.7
2022-10-02T13:47:37.000Z,1.2
2022-10-02T13:49:18.428Z,1.1
2022-10-02T13:50:10.000Z,0.9
2022-10-02T13:51:26.000Z,0.8
2022-10-02T13:52:42.000Z,0.8
2022-10-02T13:53:57.000Z,0.9
2022-10-02T13:55:13.000Z,0.7
2022-10-02T13:56:29.000Z,0.7
2022-10-02T13:57:46.000Z,0.5
2022-10-02T13:59:02.000Z,1
2022-10-02T14:00:18.000Z,0.7
2022-10-02T14:01:34.000Z,0.9
2022-10-02T14:02:50.000Z,1
2022-10-02T14:04:07.000Z,1.8
2022-10-02T14:05:23.000Z,1.3
2022-10-02T14:06:39.000Z,1.2
2022-10-02T14:07:55.000Z,0.9
2022-10-02T14:09:11.000Z,1.1
2022-10-02T14:10:27.000Z,1.2
2022-10-02T14:11:43.000Z,1.1
2022-10-02T14:12:59.000Z,1
2022-10-02T14:14:15.000Z,1.1
2022-10-02T14:15:31.000Z,0.7
2022-10-02T14:16:48.000Z,0.9
2022-10-02T14:18:03.000Z,1
2022-10-02T14:19:19.000Z,0.8
2022-10-02T14:20:35.000Z,1
2022-10-02T14:21:51.000Z,0.7
2022-10-02T14:23:08.000Z,0.7
2022-10-02T14:24:24.000Z,0.9
2022-10-02T14:25:40.000Z,0.9
2022-10-02T14:26:56.000Z,1
2022-10-02T14:28:12.000Z,0.9
2022-10-02T14:29:29.000Z,0.8
2022-10-02T14:30:45.000Z,1.5
2022-10-02T14:32:01.000Z,0.7
2022-10-02T14:33:17.000Z,1.4
2022-10-02T14:34:32.000Z,0.8
2022-10-02T14:35:49.000Z,0.6
2022-10-02T14:37:05.000Z,1
2022-10-02T14:38:21.000Z,0.9
2022-10-02T14:39:37.000Z,0.8
2022-10-02T14:40:53.000Z,0.8
2022-10-02T14:42:10.000Z,1
2022-10-02T14:43:26.000Z,1
2022-10-02T14:44:42.000Z,1.1
2022-10-02T14:45:58.000Z,1.1
2022-10-02T14:47:14.000Z,1.5
2022-10-02T14:48:30.000Z,1
2022-10-02T14:49:47.000Z,1
2022-10-02T14:51:02.000Z,0.8
2022-10-02T14:52:18.000Z,1
2022-10-02T14:53:34.000Z,1
2022-10-02T14:54:50.000Z,0.9
2022-10-02T14:56:07.000Z,0.9
2022-10-02T14:57:23.000Z,1.1
2022-10-02T14:58:39.000Z,1.3
2022-10-02T14:59:55.000Z,0.9
2022-10-02T15:01:11.000Z,1
2022-10-02T15:02:28.000Z,1.4
2022-10-02T15:03:59.901Z,1.3
2022-10-02T15:05:00.000Z,1.3
2022-10-02T15:06:16.000Z,1.6
2022-10-02T15:07:31.000Z,1.2
2022-10-02T15:08:48.000Z,1.3
2022-10-02T15:10:04.000Z,2.2
2022-10-02T15:11:20.000Z,1.4
2022-10-02T15:12:36.000Z,1.3
2022-10-02T15:13:52.000Z,1.2
2022-10-02T15:15:09.000Z,1.3
2022-10-02T15:16:25.000Z,1.7
2022-10-02T15:17:41.000Z,0.6
2022-10-02T15:18:57.000Z,0.9
2022-10-02T15:20:13.000Z,1.5
2022-10-02T15:21:30.000Z,1.5
2022-10-02T15:22:46.000Z,1.4
2022-10-02T15:24:01.000Z,0.9
2022-10-02T15:25:17.000Z,1.3
2022-10-02T15:26:33.000Z,1.2
2022-10-02T15:27:50.000Z,1.1
2022-10-02T15:29:06.000Z,1
2022-10-02T15:30:22.000Z,1
2022-10-02T15:31:38.000Z,0.8
2022-10-02T15:32:54.000Z,1
2022-10-02T15:34:10.000Z,1.3
2022-10-02T15:35:27.000Z,0.9
2022-10-02T15:36:43.000Z,0.8
2022-10-02T15:37:59.000Z,0.8
2022-10-02T15:39:15.000Z,0.9
2022-10-02T15:40:30.000Z,1.2
2022-10-02T15:42:05.740Z,1.1
2022-10-02T15:43:03.000Z,1.1
2022-10-02T15:44:19.000Z,1.1
2022-10-02T15:45:35.000Z,1.9
2022-10-02T15:46:51.000Z,1.6
2022-10-02T15:48:08.000Z,1.6
2022-10-02T15:49:24.000Z,1.8
2022-10-02T15:50:40.000Z,1.7
2022-10-02T15:51:56.000Z,1.3
2022-10-02T15:53:12.000Z,1.1
2022-10-02T15:54:29.000Z,1
2022-10-02T15:55:45.000Z,1.2
2022-10-02T15:57:00.000Z,0.9
2022-10-02T15:58:16.000Z,0.9
2022-10-02T15:59:32.000Z,1.2
2022-10-02T16:00:49.000Z,1.1
2022-10-02T16:02:05.000Z,1.1
2022-10-02T16:03:21.000Z,1.1
2022-10-02T16:04:37.000Z,1
2022-10-02T16:05:53.000Z,0.9
2022-10-02T16:07:10.000Z,1.2
2022-10-02T16:08:26.000Z,0.9
2022-10-02T16:09:42.000Z,0.9
2022-10-02T16:10:58.000Z,1.3
2022-10-02T16:12:14.000Z,1.1
2022-10-02T16:13:30.000Z,0.9
2022-10-02T16:14:46.000Z,0.9
2022-10-02T16:16:02.000Z,1.2
2022-10-02T16:17:18.000Z,1.1
2022-10-02T16:18:34.000Z,1
2022-10-02T16:20:12.559Z,1.1
2022-10-02T16:21:07.000Z,1.2
2022-10-02T16:22:23.000Z,0.9
2022-10-02T16:23:39.000Z,1
2022-10-02T16:24:55.000Z,1.2
2022-10-02T16:26:11.000Z,1.1
2022-10-02T16:27:28.000Z,1
2022-10-02T16:28:44.000Z,1.2
2022-10-02T16:29:59.000Z,1.4
2022-10-02T16:31:15.000Z,1.1
2022-10-02T16:32:31.000Z,1.2
2022-10-02T16:33:48.000Z,1.4
2022-10-02T16:35:04.000Z,1.6
2022-10-02T16:36:20.000Z,1.2
2022-10-02T16:37:36.000Z,1.1
2022-10-02T16:38:52.000Z,1.7
2022-10-02T16:40:09.000Z,1.3
2022-10-02T16:41:25.000Z,1.1
2022-10-02T16:42:41.000Z,1.2
2022-10-02T16:43:57.000Z,1.1
2022-10-02T16:45:13.000Z,0.9
2022-10-02T16:46:29.000Z,1.2
2022-10-02T16:47:45.000Z,0.7
2022-10-02T16:49:01.000Z,1.2
2022-10-02T16:50:17.000Z,0.9
2022-10-02T16:51:33.000Z,0.7
2022-10-02T16:52:50.000Z,1.2
2022-10-02T16:54:06.000Z,1
2022-10-02T16:55:22.000Z,1.1
2022-10-02T16:56:38.000Z,1.2
2022-10-02T16:57:54.000Z,1.1
2022-10-02T16:59:11.000Z,1.1
2022-10-02T17:00:27.000Z,1.2
2022-10-02T17:01:43.000Z,1.5
2022-10-02T17:02:58.000Z,0.9
2022-10-02T17:04:14.000Z,1.1
2022-10-02T17:05:31.000Z,1.3
2022-10-02T17:06:47.000Z,1
2022-10-02T17:08:03.000Z,1.3
2022-10-02T17:09:19.000Z,1
2022-10-02T17:10:35.000Z,1.2
2022-10-02T17:11:52.000Z,1
2022-10-02T17:13:08.000Z,1.4
2022-10-02T17:14:24.000Z,1.1
2022-10-02T17:15:40.000Z,1.6
2022-10-02T17:16:56.000Z,1.2
2022-10-02T17:18:12.000Z,1.6
2022-10-02T17:19:28.000Z,1.5
2022-10-02T17:20:44.000Z,1.6
2022-10-02T17:22:00.000Z,1.9
2022-10-02T17:23:16.000Z,1.7
2022-10-02T17:24:32.000Z,1.9
2022-10-02T17:25:49.000Z,2.2
2022-10-02T17:27:05.000Z,2.4
2022-10-02T17:28:21.000Z,1.8
2022-10-02T17:29:37.000Z,1.5
2022-10-02T17:30:53.000Z,1.6
2022-10-02T17:32:10.000Z,1.9
2022-10-02T17:33:26.000Z,1.9
2022-10-02T17:34:42.000Z,3
2022-10-02T17:35:57.000Z,1.5
2022-10-02T17:37:13.000Z,1.6